Time;durP1;ratioP1;P1;durP2;ratioP2;P2;SDS_P1;SDS_P2;PMS_P1;PMS_P2;Temp;Humidity;BMP_temperature;BMP_pressure;BME280_temperature;BME280_humidity;BME280_pressure;Samples;Min_cycle;Max_cycle;Signal;HPM_P1;HPM_P2
2022/11/12 00:00:16;;;;;;;6.23;4.00;;;7.80;99.90;;;;;;4970826;28;20437;-68
2022/11/12 00:02:42;;;;;;;5.90;4.17;;;7.80;99.90;;;;;;4971924;28;20264;-67
2022/11/12 00:05:08;;;;;;;9.20;4.13;;;7.70;99.90;;;;;;4955038;28;20425;-69
2022/11/12 00:07:34;;;;;;;6.77;4.60;;;7.70;99.90;;;;;;4972689;28;20174;-67
2022/11/12 00:09:59;;;;;;;6.97;4.47;;;7.70;99.90;;;;;;4955299;28;20448;-67
2022/11/12 00:12:25;;;;;;;6.53;3.80;;;7.60;99.90;;;;;;4972672;28;20177;-68
2022/11/12 00:14:50;;;;;;;4.73;3.40;;;7.60;99.90;;;;;;4966960;28;20182;-68
2022/11/12 00:17:16;;;;;;;5.43;3.50;;;7.70;99.90;;;;;;4972471;28;20261;-68
2022/11/12 00:19:42;;;;;;;8.33;3.80;;;7.60;99.90;;;;;;4971043;28;20280;-68
2022/11/12 00:22:07;;;;;;;6.00;3.80;;;7.60;99.90;;;;;;4971719;28;20170;-68
2022/11/12 00:24:33;;;;;;;4.90;3.10;;;7.60;99.90;;;;;;4972706;28;20522;-68
2022/11/12 00:26:58;;;;;;;4.70;3.37;;;7.60;99.90;;;;;;4972257;28;20174;-68
2022/11/12 00:29:24;;;;;;;5.70;4.30;;;7.50;99.90;;;;;;4972113;28;20324;-68
2022/11/12 00:31:49;;;;;;;5.10;4.07;;;7.60;99.90;;;;;;4972430;28;20165;-69
2022/11/12 00:34:15;;;;;;;4.30;3.90;;;7.60;99.90;;;;;;4979821;28;20185;-68
2022/11/12 00:36:40;;;;;;;4.60;3.40;;;7.60;99.90;;;;;;4989349;28;20169;-69
2022/11/12 00:39:06;;;;;;;4.50;4.10;;;7.60;99.90;;;;;;4989436;28;20330;-68
2022/11/12 00:41:32;;;;;;;8.20;4.20;;;7.60;99.90;;;;;;4989991;28;20173;-68
2022/11/12 00:43:57;;;;;;;4.73;4.20;;;7.60;99.90;;;;;;4991474;28;20227;-69
2022/11/12 00:46:23;;;;;;;6.73;3.40;;;7.60;99.90;;;;;;4991319;28;20248;-68
2022/11/12 00:48:48;;;;;;;6.93;4.20;;;7.60;99.90;;;;;;4991278;28;20705;-69
2022/11/12 00:51:14;;;;;;;7.17;4.10;;;7.50;99.90;;;;;;4979750;28;20195;-69
2022/11/12 00:53:39;;;;;;;6.20;3.73;;;7.50;99.90;;;;;;4989957;28;20181;-68
2022/11/12 00:56:06;;;;;;;6.50;4.30;;;7.60;99.90;;;;;;4989447;28;20180;-68
2022/11/12 00:58:34;;;;;;;5.77;3.50;;;7.70;99.90;;;;;;4990575;28;20181;-69
2022/11/12 01:01:09;;;;;;;5.17;3.77;;;7.70;99.90;;;;;;4991211;28;20460;-68
2022/11/12 01:03:36;;;;;;;7.43;4.37;;;7.70;99.90;;;;;;4991176;28;20574;-68
2022/11/12 01:06:07;;;;;;;6.83;3.97;;;7.60;99.90;;;;;;4990944;28;20459;-68
2022/11/12 01:08:34;;;;;;;5.33;3.47;;;7.60;99.90;;;;;;4979009;28;20474;-68
2022/11/12 01:11:11;;;;;;;5.07;3.37;;;7.60;99.90;;;;;;4989104;28;21122;-68
2022/11/12 01:13:39;;;;;;;5.33;3.60;;;7.60;99.90;;;;;;4989358;28;20918;-68
2022/11/12 01:16:16;;;;;;;5.03;3.80;;;7.50;99.90;;;;;;4990733;28;20844;-69
2022/11/12 01:18:43;;;;;;;5.03;3.10;;;7.50;99.90;;;;;;4990429;28;20412;-67
2022/11/12 01:21:09;;;;;;;4.13;3.40;;;7.50;99.90;;;;;;4991017;28;20491;-68
2022/11/12 01:23:36;;;;;;;5.00;2.97;;;7.50;99.90;;;;;;4990811;28;20420;-68
2022/11/12 01:26:07;;;;;;;7.03;3.90;;;7.50;99.90;;;;;;4976668;28;20442;-68
2022/11/12 01:28:32;;;;;;;6.43;3.90;;;7.70;99.90;;;;;;4965092;28;20515;-69
2022/11/12 01:31:23;;;;;;;3.73;2.63;;;7.70;99.90;;;;;;4969826;28;20453;-68
2022/11/12 01:33:53;;;;;;;8.17;3.33;;;7.60;99.90;;;;;;4970341;28;20170;-68
2022/11/12 01:36:20;;;;;;;6.37;3.83;;;7.60;99.90;;;;;;4971582;28;20415;-69
2022/11/12 01:38:46;;;;;;;4.40;2.80;;;7.50;99.90;;;;;;4971270;28;20416;-67
2022/11/12 01:41:15;;;;;;;3.77;3.37;;;7.50;99.90;;;;;;4971392;28;20409;-67
2022/11/12 01:43:41;;;;;;;6.10;3.20;;;7.50;99.90;;;;;;4971162;28;20412;-68
2022/11/12 01:46:18;;;;;;;7.20;3.10;;;7.50;99.90;;;;;;4970132;28;20850;-68
2022/11/12 01:48:57;;;;;;;2.93;2.63;;;7.50;99.90;;;;;;4967823;28;20463;-68
2022/11/12 01:51:28;;;;;;;2.77;2.57;;;7.60;99.90;;;;;;4971213;28;20415;-67
2022/11/12 01:53:57;;;;;;;4.30;3.20;;;7.60;99.90;;;;;;4971156;28;20412;-67
2022/11/12 01:56:26;;;;;;;4.90;2.80;;;7.90;99.90;;;;;;4970778;28;20401;-68
2022/11/12 01:58:56;;;;;;;2.80;2.53;;;7.80;99.90;;;;;;4970837;28;20440;-67
2022/11/12 02:01:22;;;;;;;4.07;3.00;;;7.90;99.90;;;;;;4971265;28;20500;-67
2022/11/12 02:03:48;;;;;;;5.73;2.90;;;8.00;99.90;;;;;;4969240;28;20428;-68
2022/11/12 02:06:15;;;;;;;3.90;3.03;;;7.90;99.90;;;;;;4966492;28;20615;-68
2022/11/12 02:08:42;;;;;;;5.10;2.90;;;7.90;99.90;;;;;;4968850;28;20201;-68
2022/11/12 02:11:17;;;;;;;3.23;2.90;;;7.80;99.90;;;;;;4974138;28;20409;-69
2022/11/12 02:14:00;;;;;;;3.57;2.67;;;7.70;99.90;;;;;;4974857;28;20870;-69
2022/11/12 02:16:43;;;;;;;2.40;2.07;;;7.70;99.90;;;;;;4972970;28;20385;-67
2022/11/12 02:19:12;;;;;;;4.37;2.47;;;7.60;99.90;;;;;;4974416;28;20479;-68
2022/11/12 02:21:38;;;;;;;5.20;2.93;;;7.70;99.90;;;;;;4974166;28;20435;-68
2022/11/12 02:24:25;;;;;;;4.73;2.70;;;7.80;99.90;;;;;;4968851;28;20439;-67
2022/11/12 02:26:54;;;;;;;3.57;2.70;;;7.80;99.90;;;;;;4971901;28;20425;-68
2022/11/12 02:29:20;;;;;;;3.60;2.80;;;7.90;99.90;;;;;;4973208;28;20457;-67
2022/11/12 02:31:46;;;;;;;4.60;3.77;;;7.90;99.90;;;;;;4974094;28;20398;-67
2022/11/12 02:34:11;;;;;;;3.83;2.53;;;7.90;99.90;;;;;;4972764;28;20936;-68
2022/11/12 02:36:37;;;;;;;4.10;3.70;;;7.90;99.90;;;;;;4973913;28;20198;-67
2022/11/12 02:39:04;;;;;;;3.67;2.67;;;7.90;99.90;;;;;;4970723;28;20644;-69
2022/11/12 02:41:29;;;;;;;5.00;2.73;;;7.90;99.90;;;;;;4988340;28;20211;-68
2022/11/12 02:43:55;;;;;;;5.57;3.30;;;7.90;99.90;;;;;;4993359;28;20961;-68
2022/11/12 02:46:21;;;;;;;4.07;3.67;;;7.90;99.90;;;;;;4993650;28;20169;-67
2022/11/12 02:48:46;;;;;;;5.13;3.20;;;8.00;99.90;;;;;;4993454;28;20199;-69
2022/11/12 02:51:12;;;;;;;5.80;2.90;;;7.90;99.90;;;;;;4993487;28;20244;-68
2022/11/12 02:53:37;;;;;;;4.90;3.50;;;7.90;99.90;;;;;;4992927;28;20719;-68
2022/11/12 02:56:03;;;;;;;3.00;2.70;;;7.90;99.90;;;;;;4987001;28;20193;-68
2022/11/12 02:58:29;;;;;;;5.53;3.50;;;7.90;99.90;;;;;;4962098;28;20188;-68
2022/11/12 03:00:55;;;;;;;5.33;3.00;;;7.70;99.90;;;;;;4973028;28;20193;-67
2022/11/12 03:03:21;;;;;;;12.37;3.33;;;7.80;99.90;;;;;;4972828;28;20417;-68
2022/11/12 03:05:59;;;;;;;4.80;2.83;;;7.60;99.90;;;;;;4964486;28;20430;-68
2022/11/12 03:08:25;;;;;;;3.73;3.43;;;7.50;99.90;;;;;;4963810;28;20931;-68
2022/11/12 03:10:51;;;;;;;6.50;3.30;;;7.50;99.90;;;;;;4969335;28;20466;-68
2022/11/12 03:13:16;;;;;;;4.57;3.10;;;7.40;99.90;;;;;;4968880;28;20884;-68
2022/11/12 03:15:42;;;;;;;3.53;3.23;;;7.50;99.90;;;;;;4969498;28;20430;-68
2022/11/12 03:18:08;;;;;;;3.77;3.13;;;7.40;99.90;;;;;;4969032;28;20703;-69
2022/11/12 03:20:36;;;;;;;5.10;3.10;;;7.30;99.90;;;;;;4968411;28;20202;-69
2022/11/12 03:23:07;;;;;;;3.40;3.10;;;7.20;99.90;;;;;;4969006;28;20189;-68
2022/11/12 03:25:34;;;;;;;8.43;2.80;;;7.10;99.90;;;;;;4968989;28;20797;-68
2022/11/12 03:28:06;;;;;;;4.10;2.90;;;7.10;99.90;;;;;;4968541;28;20456;-68
2022/11/12 03:30:34;;;;;;;3.23;2.80;;;7.00;99.90;;;;;;4971757;28;20456;-68
2022/11/12 03:33:00;;;;;;;6.50;3.37;;;7.00;99.90;;;;;;4968699;28;20464;-67
2022/11/12 03:35:26;;;;;;;4.07;2.80;;;7.00;99.90;;;;;;4967871;28;20463;-67
2022/11/12 03:37:52;;;;;;;5.07;3.37;;;7.00;99.90;;;;;;4968519;28;20169;-69
2022/11/12 03:40:18;;;;;;;4.33;3.10;;;7.00;99.90;;;;;;4968436;28;20444;-68
2022/11/12 03:42:48;;;;;;;4.63;3.10;;;6.90;99.90;;;;;;4970839;28;20428;-68
2022/11/12 03:45:15;;;;;;;3.50;3.10;;;6.90;99.90;;;;;;4967919;28;20517;-68
2022/11/12 03:47:45;;;;;;;5.00;2.60;;;6.90;99.90;;;;;;4968805;28;20444;-69
2022/11/12 03:50:13;;;;;;;3.27;2.93;;;6.80;99.90;;;;;;4968315;28;20469;-68
2022/11/12 03:52:44;;;;;;;4.73;3.07;;;6.90;99.90;;;;;;4968664;28;20532;-68
2022/11/12 03:55:09;;;;;;;4.37;3.20;;;6.90;99.90;;;;;;4968350;28;20433;-68
2022/11/12 03:57:35;;;;;;;6.07;3.37;;;6.80;99.90;;;;;;4969113;28;20441;-68
2022/11/12 04:00:00;;;;;;;4.20;3.43;;;6.90;99.90;;;;;;4971641;28;20193;-67
2022/11/12 04:02:28;;;;;;;3.80;2.83;;;6.80;99.90;;;;;;4971925;28;20245;-68
2022/11/12 04:10:23;;;;;;;3.67;2.47;;;6.80;99.90;;;;;;4965876;28;20504;-68
2022/11/12 04:15:32;;;;;;;4.83;3.33;;;6.70;99.90;;;;;;4968616;28;20249;-67
2022/11/12 04:23:30;;;;;;;6.73;3.07;;;6.70;99.90;;;;;;4926005;28;20515;-68
2022/11/12 04:26:29;;;;;;;4.00;3.60;;;6.70;99.90;;;;;;4967884;28;20862;-68
2022/11/12 04:31:32;;;;;;;2.63;2.40;;;6.70;99.90;;;;;;4964493;28;20962;-67
2022/11/12 04:34:27;;;;;;;3.40;3.10;;;6.70;99.90;;;;;;4957193;28;20434;-68
2022/11/12 04:36:43;;;;;;;2.97;2.67;;;6.60;99.90;;;;;;4970908;28;20185;-67
2022/11/12 04:39:09;;;;;;;4.10;2.97;;;6.60;99.90;;;;;;4967518;28;20558;-68
2022/11/12 04:47:02;;;;;;;3.50;3.20;;;6.50;99.90;;;;;;4961304;28;20850;-69
2022/11/12 04:49:28;;;;;;;4.50;3.30;;;6.50;99.90;;;;;;4967033;28;20497;-69
2022/11/12 04:52:06;;;;;;;4.10;3.07;;;6.60;99.90;;;;;;4967246;28;20269;-67
2022/11/12 04:54:32;;;;;;;3.83;2.90;;;6.60;99.90;;;;;;4967345;28;20469;-68
2022/11/12 04:56:59;;;;;;;4.90;3.80;;;6.60;99.90;;;;;;4967429;28;20432;-68
2022/11/12 04:59:25;;;;;;;5.00;3.43;;;6.70;99.90;;;;;;4967324;28;20495;-67
2022/11/12 05:01:51;;;;;;;6.50;3.47;;;6.70;99.90;;;;;;4967473;28;20467;-68
2022/11/12 05:04:16;;;;;;;4.83;3.43;;;6.70;99.90;;;;;;4967799;28;20938;-68
2022/11/12 05:06:51;;;;;;;5.70;3.33;;;6.60;99.90;;;;;;4967418;28;20703;-67
2022/11/12 05:09:23;;;;;;;5.00;2.93;;;6.50;99.90;;;;;;4967185;28;20235;-68
2022/11/12 05:11:49;;;;;;;4.80;3.67;;;6.50;99.90;;;;;;4968707;28;20770;-66
2022/11/12 05:14:14;;;;;;;7.13;3.07;;;6.40;99.90;;;;;;4970317;28;20515;-68
2022/11/12 05:16:40;;;;;;;5.30;4.80;;;6.40;99.90;;;;;;4967283;28;20518;-68
2022/11/12 05:19:06;;;;;;;4.57;3.07;;;6.30;99.90;;;;;;4967750;28;20300;-69
2022/11/12 05:24:16;;;;;;;3.80;3.10;;;6.30;99.90;;;;;;4967578;28;20736;-67
2022/11/12 05:26:41;;;;;;;5.13;3.27;;;6.20;99.90;;;;;;4966928;28;20827;-68
2022/11/12 05:29:07;;;;;;;3.60;3.30;;;6.20;99.90;;;;;;4967016;28;20213;-68
2022/11/12 05:31:33;;;;;;;6.63;3.00;;;6.20;99.90;;;;;;5031405;23;20713;-72
2022/11/12 05:33:58;;;;;;;8.83;3.00;;;6.20;99.90;;;;;;5031381;28;20160;-70
2022/11/12 05:36:24;;;;;;;4.63;3.20;;;6.20;99.90;;;;;;5028325;28;20431;-71
2022/11/12 05:38:50;;;;;;;3.63;3.27;;;6.20;99.90;;;;;;5020920;28;20671;-71
2022/11/12 05:41:16;;;;;;;4.17;3.60;;;6.10;99.90;;;;;;5011362;28;20192;-71
2022/11/12 05:43:41;;;;;;;4.83;2.93;;;6.10;99.90;;;;;;5026063;28;20230;-70
2022/11/12 05:46:07;;;;;;;5.03;3.00;;;6.10;99.90;;;;;;5034526;28;20515;-70
2022/11/12 05:48:33;;;;;;;3.40;2.93;;;6.10;99.90;;;;;;5034781;28;20674;-70
2022/11/12 05:50:58;;;;;;;3.67;3.20;;;6.10;99.90;;;;;;5035196;28;20188;-71
2022/11/12 05:53:24;;;;;;;4.47;3.60;;;6.00;99.90;;;;;;5034962;28;20167;-71
2022/11/12 05:55:49;;;;;;;4.90;3.60;;;6.00;99.90;;;;;;5034320;28;20278;-72
2022/11/12 05:58:15;;;;;;;3.03;2.73;;;6.00;99.90;;;;;;5034556;28;20171;-71
2022/11/12 06:00:40;;;;;;;3.63;2.90;;;6.00;99.90;;;;;;5034135;28;20685;-69
2022/11/12 06:03:11;;;;;;;4.00;2.93;;;6.00;99.90;;;;;;5033941;28;20594;-70
2022/11/12 06:05:37;;;;;;;4.90;3.03;;;6.10;99.90;;;;;;5033614;28;20533;-69
2022/11/12 06:08:04;;;;;;;5.00;3.40;;;6.10;99.90;;;;;;5033993;28;20967;-71
2022/11/12 06:10:31;;;;;;;5.90;3.70;;;6.10;99.90;;;;;;5034211;28;20418;-70
2022/11/12 06:12:57;;;;;;;8.83;3.77;;;6.00;99.90;;;;;;5033867;28;20434;-70
2022/11/12 06:15:25;;;;;;;3.57;3.07;;;6.00;99.90;;;;;;5033739;28;20418;-71
2022/11/12 06:17:52;;;;;;;6.30;3.47;;;6.00;99.90;;;;;;5034435;28;20171;-70
2022/11/12 06:20:17;;;;;;;4.83;3.97;;;6.00;99.90;;;;;;5033497;28;20429;-71
2022/11/12 06:22:43;;;;;;;5.40;4.37;;;6.00;99.90;;;;;;5034108;28;20889;-70
2022/11/12 06:25:08;;;;;;;4.20;3.30;;;6.00;99.90;;;;;;5034117;28;20278;-70
2022/11/12 06:27:34;;;;;;;4.13;3.73;;;6.00;99.90;;;;;;5033590;28;20171;-71
2022/11/12 06:30:00;;;;;;;6.40;4.50;;;6.00;99.90;;;;;;5029770;28;20313;-70
2022/11/12 06:32:25;;;;;;;6.00;4.50;;;6.00;99.90;;;;;;5031552;28;20194;-71
2022/11/12 06:34:52;;;;;;;4.27;3.87;;;6.00;99.90;;;;;;5029894;28;20262;-70
2022/11/12 06:37:18;;;;;;;5.27;3.00;;;6.00;99.90;;;;;;5030801;28;20531;-70
2022/11/12 06:39:44;;;;;;;4.00;3.60;;;6.00;99.90;;;;;;5030030;28;20976;-70
2022/11/12 06:42:10;;;;;;;4.20;3.80;;;6.00;99.90;;;;;;5029260;28;20445;-70
2022/11/12 06:44:35;;;;;;;5.13;4.07;;;6.00;99.90;;;;;;5029814;28;20182;-70
2022/11/12 06:47:01;;;;;;;6.87;4.63;;;6.10;99.90;;;;;;5029837;28;20179;-71
2022/11/12 06:49:27;;;;;;;7.13;5.03;;;6.10;99.90;;;;;;5028541;28;20203;-71
2022/11/12 06:51:52;;;;;;;8.47;5.77;;;6.20;99.90;;;;;;5027309;28;20457;-71
2022/11/12 06:54:18;;;;;;;6.87;4.70;;;6.20;99.90;;;;;;5029524;28;20922;-70
2022/11/12 06:56:43;;;;;;;4.63;4.10;;;6.20;99.90;;;;;;5028544;28;20810;-70
2022/11/12 06:59:09;;;;;;;7.10;3.83;;;6.30;99.90;;;;;;5029240;28;20189;-70
2022/11/12 07:01:35;;;;;;;8.53;4.30;;;6.30;99.90;;;;;;5030543;28;20652;-70
2022/11/12 07:04:01;;;;;;;6.03;4.90;;;6.30;99.90;;;;;;5028767;28;20181;-70
2022/11/12 07:06:26;;;;;;;9.77;4.10;;;6.40;99.90;;;;;;5028845;28;20183;-71
2022/11/12 07:08:52;;;;;;;5.43;4.40;;;6.50;99.90;;;;;;5030563;28;20195;-70
2022/11/12 07:11:18;;;;;;;3.87;3.50;;;6.50;99.90;;;;;;5029609;28;20214;-70
2022/11/12 07:13:44;;;;;;;4.80;3.90;;;6.70;99.90;;;;;;5029000;28;20539;-70
2022/11/12 07:16:11;;;;;;;6.20;3.77;;;6.70;99.90;;;;;;5025999;28;20786;-70
2022/11/12 07:18:37;;;;;;;6.53;3.80;;;6.90;99.90;;;;;;5029958;28;20465;-72
2022/11/12 07:21:07;;;;;;;5.47;3.77;;;7.10;99.90;;;;;;5030223;28;21004;-70
2022/11/12 07:23:35;;;;;;;5.90;4.50;;;7.20;99.90;;;;;;5032154;28;20443;-70
2022/11/12 07:26:03;;;;;;;7.63;4.20;;;7.40;99.90;;;;;;5029884;28;20434;-70
2022/11/12 07:28:29;;;;;;;8.10;5.03;;;7.50;99.90;;;;;;5012280;28;20993;-71
2022/11/12 07:31:06;;;;;;;5.27;3.70;;;7.60;99.90;;;;;;5011818;28;20497;-70
2022/11/12 07:33:33;;;;;;;6.80;3.73;;;7.70;99.90;;;;;;5028139;28;20477;-70
2022/11/12 07:36:00;;;;;;;7.67;4.10;;;7.80;99.90;;;;;;5029837;28;20832;-72
2022/11/12 07:38:27;;;;;;;7.27;4.63;;;7.90;99.90;;;;;;5025157;28;20783;-70
2022/11/12 07:40:59;;;;;;;6.23;4.50;;;8.00;99.90;;;;;;5028804;28;20880;-69
2022/11/12 07:43:24;;;;;;;6.80;4.50;;;8.00;99.90;;;;;;5028029;28;20801;-70
2022/11/12 07:45:50;;;;;;;5.63;4.10;;;8.10;99.90;;;;;;5028130;28;20431;-70
2022/11/12 07:48:16;;;;;;;9.33;4.20;;;8.20;99.90;;;;;;5031221;28;20204;-70
2022/11/12 07:50:41;;;;;;;5.07;3.70;;;8.40;99.90;;;;;;5031157;28;20196;-70
2022/11/12 07:53:07;;;;;;;6.53;4.00;;;8.40;99.90;;;;;;5032417;28;20266;-70
2022/11/12 07:55:32;;;;;;;7.80;4.67;;;8.40;99.90;;;;;;5031190;28;20255;-70
2022/11/12 07:57:59;;;;;;;4.50;3.50;;;8.40;99.90;;;;;;5027697;28;20187;-70
2022/11/12 08:00:24;;;;;;;5.43;4.10;;;8.50;99.90;;;;;;5011752;28;20282;-70
2022/11/12 08:02:50;;;;;;;5.37;3.90;;;8.70;99.90;;;;;;5032533;28;20501;-70
2022/11/12 08:05:15;;;;;;;9.27;5.37;;;9.20;99.90;;;;;;5029738;28;20173;-70
2022/11/12 08:07:41;;;;;;;4.20;3.80;;;9.70;99.90;;;;;;5027822;28;20176;-71
2022/11/12 08:10:07;;;;;;;6.23;3.83;;;10.00;99.90;;;;;;5028094;28;20233;-70
2022/11/12 08:12:33;;;;;;;8.20;4.40;;;10.70;99.90;;;;;;5030432;28;20344;-70
2022/11/12 08:14:58;;;;;;;6.47;4.20;;;10.70;99.90;;;;;;5028023;28;20470;-71
2022/11/12 08:17:24;;;;;;;5.63;4.20;;;10.30;99.90;;;;;;5027515;28;20258;-71
2022/11/12 08:19:54;;;;;;;4.27;3.70;;;10.10;99.90;;;;;;5028420;28;20184;-71
2022/11/12 08:22:20;;;;;;;6.43;4.10;;;9.90;99.90;;;;;;5027646;28;20205;-70
2022/11/12 08:24:45;;;;;;;6.90;3.70;;;10.10;99.90;;;;;;5027344;28;20423;-70
2022/11/12 08:27:11;;;;;;;7.90;4.07;;;10.20;99.90;;;;;;5028561;28;20488;-70
2022/11/12 08:29:36;;;;;;;4.07;3.63;;;10.40;99.90;;;;;;5003468;28;20278;-69
2022/11/12 08:32:02;;;;;;;5.33;4.80;;;10.50;99.90;;;;;;5028599;28;20226;-70
2022/11/12 08:34:27;;;;;;;8.93;3.70;;;10.60;99.90;;;;;;5028294;28;20175;-70
2022/11/12 08:36:53;;;;;;;5.83;4.37;;;10.50;99.90;;;;;;5028627;28;20592;-70
2022/11/12 08:39:18;;;;;;;6.10;4.77;;;10.60;99.90;;;;;;5028911;28;20176;-70
2022/11/12 08:41:44;;;;;;;6.83;3.50;;;11.50;99.90;;;;;;5028928;28;20664;-70
2022/11/12 08:44:10;;;;;;;6.40;4.93;;;12.40;99.90;;;;;;5028582;28;20262;-70
2022/11/12 08:46:35;;;;;;;8.30;4.37;;;13.10;99.90;;;;;;5028047;28;20180;-70
2022/11/12 08:49:01;;;;;;;5.63;4.23;;;13.70;99.90;;;;;;5028176;28;20199;-70
2022/11/12 08:51:26;;;;;;;6.57;5.50;;;13.10;99.90;;;;;;5028722;28;20697;-72
2022/11/12 08:53:52;;;;;;;6.37;5.07;;;12.10;99.90;;;;;;5028689;28;20201;-70
2022/11/12 08:56:17;;;;;;;6.43;4.63;;;11.40;99.90;;;;;;5028345;28;20176;-72
2022/11/12 08:58:43;;;;;;;9.13;5.53;;;11.50;99.90;;;;;;5027386;28;20183;-71
2022/11/12 09:01:09;;;;;;;10.53;4.73;;;11.60;99.90;;;;;;5027035;28;20199;-71
2022/11/12 09:03:34;;;;;;;12.47;6.43;;;11.60;99.90;;;;;;5027014;28;20176;-72
2022/11/12 09:06:04;;;;;;;8.20;4.87;;;11.60;99.90;;;;;;5026474;28;20672;-71
2022/11/12 09:08:33;;;;;;;9.30;5.60;;;11.90;99.90;;;;;;5027377;28;20196;-72
2022/11/12 09:10:58;;;;;;;12.17;6.10;;;11.90;99.90;;;;;;5028479;28;20446;-71
2022/11/12 09:13:24;;;;;;;13.33;6.27;;;12.30;99.90;;;;;;5026779;28;20425;-71
2022/11/12 09:15:49;;;;;;;9.30;6.03;;;12.40;99.90;;;;;;5027136;28;20167;-70
2022/11/12 09:18:17;;;;;;;8.20;6.60;;;12.50;99.90;;;;;;5026717;28;20222;-70
2022/11/12 09:20:43;;;;;;;14.30;6.07;;;12.30;99.90;;;;;;5026477;28;20196;-71
2022/11/12 09:23:11;;;;;;;8.60;6.80;;;12.20;99.90;;;;;;5028193;28;20955;-71
2022/11/12 09:25:38;;;;;;;9.07;6.70;;;12.50;99.90;;;;;;5026255;28;20222;-72
2022/11/12 09:28:14;;;;;;;15.13;7.37;;;12.20;99.90;;;;;;5028092;28;20436;-71
2022/11/12 09:30:46;;;;;;;12.07;7.57;;;12.20;99.90;;;;;;5024489;28;20955;-71
2022/11/12 09:33:16;;;;;;;10.17;7.90;;;12.20;99.90;;;;;;5026696;28;21099;-71
2022/11/12 09:35:42;;;;;;;9.80;7.17;;;12.20;99.90;;;;;;5027103;28;20733;-71
2022/11/12 09:38:08;;;;;;;10.00;7.23;;;12.30;99.90;;;;;;5027138;28;20457;-71
2022/11/12 09:41:08;;;;;;;13.30;7.80;;;12.40;99.90;;;;;;5027306;28;20450;-72
2022/11/12 09:43:44;;;;;;;12.63;7.23;;;12.40;99.90;;;;;;5020860;28;20195;-70
2022/11/12 09:46:51;;;;;;;13.90;7.73;;;12.40;99.90;;;;;;5026917;28;20492;-71
2022/11/12 09:49:24;;;;;;;8.97;6.20;;;12.50;99.90;;;;;;5020350;28;20488;-71
2022/11/12 09:51:55;;;;;;;11.30;7.00;;;12.30;99.90;;;;;;5030721;28;20521;-70
2022/11/12 09:54:25;;;;;;;12.60;6.10;;;12.50;99.90;;;;;;5031058;28;20747;-70
2022/11/12 09:56:52;;;;;;;12.10;7.20;;;12.70;99.90;;;;;;5026517;28;20437;-70
2022/11/12 09:59:19;;;;;;;7.13;5.80;;;12.60;99.90;;;;;;5026344;28;20517;-70
2022/11/12 10:02:03;;;;;;;11.40;6.67;;;12.30;99.90;;;;;;5026241;28;20459;-70
2022/11/12 10:05:19;;;;;;;6.23;5.57;;;12.20;99.90;;;;;;5026450;28;20426;-71
2022/11/12 10:07:53;;;;;;;8.70;5.93;;;12.50;99.90;;;;;;4983034;28;20441;-70
2022/11/12 10:10:34;;;;;;;9.40;6.60;;;12.40;99.90;;;;;;5026938;28;20433;-70
2022/11/12 10:13:41;;;;;;;8.37;6.00;;;12.30;99.90;;;;;;4995541;28;20441;-70
2022/11/12 10:16:43;;;;;;;14.80;7.13;;;12.40;99.90;;;;;;4993469;28;20435;-71
2022/11/12 10:19:36;;;;;;;9.50;5.23;;;12.30;99.90;;;;;;5026481;28;20460;-70
2022/11/12 10:22:13;;;;;;;11.70;6.40;;;12.50;99.90;;;;;;5026348;28;20450;-70
2022/11/12 10:24:40;;;;;;;9.10;5.70;;;12.50;99.90;;;;;;5026015;28;20448;-70
2022/11/12 10:27:14;;;;;;;10.07;6.43;;;12.50;99.90;;;;;;5026112;28;20796;-71
2022/11/12 10:30:01;;;;;;;6.70;5.80;;;12.40;99.90;;;;;;5024509;28;20822;-72
2022/11/12 10:32:26;;;;;;;7.40;4.50;;;12.60;99.90;;;;;;5030278;28;20645;-70
2022/11/12 10:34:52;;;;;;;7.77;5.30;;;12.50;99.90;;;;;;5029643;28;20433;-71
2022/11/12 10:37:34;;;;;;;10.97;5.60;;;12.60;99.90;;;;;;5029670;28;20218;-70
2022/11/12 10:40:20;;;;;;;10.00;5.17;;;12.80;99.90;;;;;;5028047;28;20191;-70
2022/11/12 10:42:55;;;;;;;6.83;4.17;;;12.80;99.90;;;;;;5029668;28;20433;-70
2022/11/12 10:45:22;;;;;;;7.60;4.97;;;12.70;99.90;;;;;;5027849;28;20516;-70
2022/11/12 10:47:47;;;;;;;7.80;4.80;;;13.00;99.90;;;;;;5029651;28;20441;-70
2022/11/12 10:50:30;;;;;;;9.07;4.80;;;13.20;99.90;;;;;;5029248;28;20833;-70
2022/11/12 10:53:05;;;;;;;7.90;5.20;;;13.20;99.90;;;;;;5029669;28;20582;-70
2022/11/12 10:55:33;;;;;;;10.50;5.60;;;13.20;99.90;;;;;;5029278;28;20461;-70
2022/11/12 10:58:06;;;;;;;6.67;5.60;;;13.50;99.90;;;;;;5029782;28;20438;-70
2022/11/12 11:00:32;;;;;;;9.33;5.97;;;13.50;99.90;;;;;;5029606;28;20972;-70
2022/11/12 11:03:00;;;;;;;5.70;5.10;;;13.70;99.90;;;;;;5028986;28;20438;-70
2022/11/12 11:05:33;;;;;;;6.70;5.37;;;13.90;99.90;;;;;;5029114;28;20434;-71
2022/11/12 11:08:00;;;;;;;6.40;5.10;;;14.20;99.90;;;;;;5029798;28;20440;-71
2022/11/12 11:10:34;;;;;;;6.17;4.93;;;14.20;99.90;;;;;;5013343;28;20450;-70
2022/11/12 11:13:24;;;;;;;8.00;5.60;;;13.90;99.90;;;;;;5029194;28;20434;-70
2022/11/12 11:15:59;;;;;;;8.47;4.70;;;14.00;99.90;;;;;;5026138;28;20698;-70
2022/11/12 11:18:26;;;;;;;8.70;5.10;;;13.70;99.90;;;;;;5029980;28;20439;-71
2022/11/12 11:21:23;;;;;;;9.70;6.20;;;13.70;99.90;;;;;;5029968;28;20492;-70
2022/11/12 11:24:10;;;;;;;5.83;4.93;;;13.90;99.90;;;;;;5030194;28;20847;-69
2022/11/12 11:26:50;;;;;;;7.03;6.33;;;13.70;99.90;;;;;;5028094;28;20495;-71
2022/11/12 11:29:34;;;;;;;6.00;5.10;;;13.50;99.90;;;;;;5042403;28;20453;-71
2022/11/12 11:32:19;;;;;;;6.33;4.70;;;13.60;99.90;;;;;;5057764;23;20478;-65
2022/11/12 11:35:19;;;;;;;12.00;5.33;;;13.60;99.90;;;;;;5038529;28;20429;-67
2022/11/12 11:38:14;;;;;;;10.67;5.90;;;13.40;99.90;;;;;;5033814;28;20426;-67
2022/11/12 11:41:22;;;;;;;9.80;5.07;;;13.40;99.90;;;;;;5036114;28;20825;-66
2022/11/12 11:43:57;;;;;;;7.77;5.60;;;13.50;99.90;;;;;;5032546;28;20473;-67
2022/11/12 11:46:43;;;;;;;8.83;6.70;;;13.40;99.90;;;;;;5032152;28;20425;-66
2022/11/12 11:49:23;;;;;;;8.00;5.43;;;13.50;99.90;;;;;;5032387;28;20531;-66
2022/11/12 11:51:54;;;;;;;6.93;4.47;;;13.50;99.90;;;;;;5032563;28;20436;-66
2022/11/12 11:54:20;;;;;;;7.73;5.33;;;13.50;99.90;;;;;;5032349;28;20936;-67
2022/11/12 11:56:48;;;;;;;7.20;4.93;;;13.80;99.90;;;;;;5039494;28;20426;-67
2022/11/12 11:59:20;;;;;;;8.80;5.50;;;13.50;99.90;;;;;;5032390;28;20171;-65
2022/11/12 12:02:15;;;;;;;7.90;5.27;;;13.60;99.90;;;;;;5031724;28;20844;-66
2022/11/12 12:05:17;;;;;;;9.20;5.47;;;13.80;99.90;;;;;;5020522;28;20482;-66
2022/11/12 12:08:02;;;;;;;8.00;4.80;;;13.70;99.90;;;;;;5011330;28;20869;-66
2022/11/12 12:10:48;;;;;;;11.70;5.53;;;13.80;99.90;;;;;;5031912;28;20476;-66
2022/11/12 12:13:37;;;;;;;6.00;4.43;;;13.80;99.90;;;;;;5035024;28;20423;-66
2022/11/12 12:16:03;;;;;;;5.50;3.53;;;13.50;99.90;;;;;;5031498;28;20426;-66
2022/11/12 12:18:45;;;;;;;8.07;5.07;;;13.50;99.90;;;;;;5031351;28;20441;-67
2022/11/12 12:21:19;;;;;;;9.23;5.70;;;13.70;99.90;;;;;;5039295;28;20293;-67
2022/11/12 12:24:03;;;;;;;11.27;5.37;;;13.70;99.90;;;;;;5031172;28;20830;-66
2022/11/12 12:26:52;;;;;;;5.00;4.50;;;13.70;99.90;;;;;;5034787;28;20434;-66
2022/11/12 12:29:42;;;;;;;8.57;4.57;;;13.90;99.90;;;;;;5031069;28;20476;-67
2022/11/12 12:32:16;;;;;;;7.60;5.23;;;13.90;99.90;;;;;;5038180;28;20917;-66
2022/11/12 12:34:46;;;;;;;5.90;5.10;;;13.90;99.90;;;;;;5031138;28;20434;-65
2022/11/12 12:37:25;;;;;;;5.20;4.00;;;13.90;99.90;;;;;;5031338;28;20944;-66
2022/11/12 12:40:13;;;;;;;8.27;5.23;;;14.00;99.90;;;;;;5030955;28;20466;-66
2022/11/12 12:42:48;;;;;;;9.87;4.97;;;13.80;99.90;;;;;;5030713;28;20450;-66
2022/11/12 12:45:52;;;;;;;7.13;4.60;;;14.00;99.90;;;;;;5030883;28;20835;-66
2022/11/12 12:48:36;;;;;;;7.07;4.90;;;14.10;99.90;;;;;;4947401;29;20469;-66
2022/11/12 12:51:02;;;;;;;11.20;5.40;;;13.90;99.90;;;;;;4947962;28;20471;-67
2022/11/12 12:53:28;;;;;;;7.80;4.50;;;13.90;99.90;;;;;;4996467;28;20521;-67
2022/11/12 12:55:58;;;;;;;6.70;5.37;;;13.80;99.90;;;;;;5031125;28;20174;-67
2022/11/12 12:58:45;;;;;;;4.83;4.27;;;13.90;99.90;;;;;;5031524;28;20183;-67
2022/11/12 13:01:20;;;;;;;10.90;4.73;;;14.00;99.90;;;;;;5030830;28;20490;-68
2022/11/12 13:03:49;;;;;;;5.73;4.97;;;14.00;99.90;;;;;;5031197;28;20441;-67
2022/11/12 13:06:23;;;;;;;8.37;4.20;;;13.90;99.90;;;;;;5030930;28;20430;-67
2022/11/12 13:09:05;;;;;;;8.17;3.80;;;13.90;99.90;;;;;;5038863;28;20495;-67
2022/11/12 13:14:36;;;;;;;5.00;3.93;;;14.00;99.90;;;;;;5030875;28;20468;-67
2022/11/12 13:17:07;;;;;;;7.90;4.67;;;14.00;99.90;;;;;;5030983;28;20801;-67
2022/11/12 13:19:42;;;;;;;10.97;5.40;;;13.90;99.90;;;;;;5030366;28;21249;-66
2022/11/12 13:22:17;;;;;;;9.23;5.30;;;13.90;99.90;;;;;;5030755;28;20481;-66
2022/11/12 13:25:07;;;;;;;8.07;5.10;;;13.90;99.90;;;;;;5034851;28;20479;-66
2022/11/12 13:27:42;;;;;;;12.50;5.73;;;13.90;99.90;;;;;;5031404;28;20461;-66
2022/11/12 13:30:15;;;;;;;6.07;4.30;;;13.90;99.90;;;;;;5030816;28;20656;-66
2022/11/12 13:32:46;;;;;;;8.37;4.80;;;13.80;99.90;;;;;;5038120;28;20828;-66
2022/11/12 13:35:21;;;;;;;6.13;4.60;;;13.80;99.90;;;;;;5034095;28;20986;-66
2022/11/12 13:37:57;;;;;;;9.93;5.73;;;13.80;99.90;;;;;;5033084;28;20936;-65